sensor_id;sensor_type;location;lat;lon;timestamp;P1;durP1;ratioP1;P2;durP2;ratioP2
21519;SDS011;10921;53.614;9.882;2023-06-22T00:00:10;12.55;;;11.55;;
21519;SDS011;10921;53.614;9.882;2023-06-22T00:02:38;12.65;;;11.48;;
21519;SDS011;10921;53.614;9.882;2023-06-22T00:05:04;12.68;;;11.50;;
21519;SDS011;10921;53.614;9.882;2023-06-22T00:07:31;13.05;;;11.85;;
21519;SDS011;10921;53.614;9.882;2023-06-22T00:09:57;13.30;;;12.00;;
21519;SDS011;10921;53.614;9.882;2023-06-22T00:12:24;11.90;;;10.85;;
21519;SDS011;10921;53.614;9.882;2023-06-22T00:14:50;13.18;;;11.93;;
21519;SDS011;10921;53.614;9.882;2023-06-22T00:17:17;13.00;;;11.73;;
21519;SDS011;10921;53.614;9.882;2023-06-22T00:19:43;13.80;;;11.95;;
21519;SDS011;10921;53.614;9.882;2023-06-22T00:22:13;13.63;;;12.32;;
21519;SDS011;10921;53.614;9.882;2023-06-22T00:24:40;14.23;;;12.82;;
21519;SDS011;10921;53.614;9.882;2023-06-22T00:27:06;12.55;;;11.45;;
21519;SDS011;10921;53.614;9.882;2023-06-22T00:29:33;12.40;;;11.30;;
21519;SDS011;10921;53.614;9.882;2023-06-22T00:31:59;14.85;;;12.13;;
21519;SDS011;10921;53.614;9.882;2023-06-22T00:34:26;12.60;;;11.50;;
21519;SDS011;10921;53.614;9.882;2023-06-22T00:36:52;13.05;;;11.77;;
21519;SDS011;10921;53.614;9.882;2023-06-22T00:39:19;13.20;;;11.88;;
21519;SDS011;10921;53.614;9.882;2023-06-22T00:41:45;12.98;;;11.70;;
21519;SDS011;10921;53.614;9.882;2023-06-22T00:44:12;13.00;;;11.80;;
21519;SDS011;10921;53.614;9.882;2023-06-22T00:46:38;12.32;;;11.23;;
21519;SDS011;10921;53.614;9.882;2023-06-22T00:49:05;12.82;;;11.60;;
21519;SDS011;10921;53.614;9.882;2023-06-22T00:51:31;13.63;;;12.23;;
21519;SDS011;10921;53.614;9.882;2023-06-22T00:53:58;13.57;;;12.15;;
21519;SDS011;10921;53.614;9.882;2023-06-22T00:56:25;12.88;;;11.77;;
21519;SDS011;10921;53.614;9.882;2023-06-22T00:58:52;13.30;;;12.00;;
21519;SDS011;10921;53.614;9.882;2023-06-22T01:01:19;12.95;;;11.75;;
21519;SDS011;10921;53.614;9.882;2023-06-22T01:03:49;13.45;;;11.75;;
21519;SDS011;10921;53.614;9.882;2023-06-22T01:06:19;12.60;;;11.45;;
21519;SDS011;10921;53.614;9.882;2023-06-22T01:09:06;12.82;;;11.52;;
21519;SDS011;10921;53.614;9.882;2023-06-22T01:11:43;13.35;;;11.98;;
21519;SDS011;10921;53.614;9.882;2023-06-22T01:14:24;13.77;;;12.40;;
21519;SDS011;10921;53.614;9.882;2023-06-22T01:16:53;13.60;;;12.20;;
21519;SDS011;10921;53.614;9.882;2023-06-22T01:22:00;13.13;;;11.93;;
21519;SDS011;10921;53.614;9.882;2023-06-22T01:24:41;13.68;;;12.38;;
21519;SDS011;10921;53.614;9.882;2023-06-22T01:30:18;12.48;;;11.38;;
21519;SDS011;10921;53.614;9.882;2023-06-22T01:32:45;13.95;;;12.52;;
21519;SDS011;10921;53.614;9.882;2023-06-22T01:35:14;13.55;;;12.27;;
21519;SDS011;10921;53.614;9.882;2023-06-22T01:37:42;13.77;;;12.43;;
21519;SDS011;10921;53.614;9.882;2023-06-22T01:40:10;13.50;;;12.18;;
21519;SDS011;10921;53.614;9.882;2023-06-22T01:42:37;13.75;;;12.55;;
21519;SDS011;10921;53.614;9.882;2023-06-22T01:45:04;13.48;;;12.18;;
21519;SDS011;10921;53.614;9.882;2023-06-22T01:47:32;15.05;;;12.68;;
21519;SDS011;10921;53.614;9.882;2023-06-22T01:50:00;15.75;;;12.20;;
21519;SDS011;10921;53.614;9.882;2023-06-22T01:52:27;13.05;;;11.85;;
21519;SDS011;10921;53.614;9.882;2023-06-22T01:54:53;14.13;;;12.65;;
21519;SDS011;10921;53.614;9.882;2023-06-22T01:57:20;13.05;;;11.88;;
21519;SDS011;10921;53.614;9.882;2023-06-22T02:02:23;14.38;;;13.07;;
21519;SDS011;10921;53.614;9.882;2023-06-22T02:04:57;14.15;;;12.68;;
21519;SDS011;10921;53.614;9.882;2023-06-22T02:07:31;13.32;;;12.13;;
21519;SDS011;10921;53.614;9.882;2023-06-22T02:10:00;14.27;;;12.77;;
21519;SDS011;10921;53.614;9.882;2023-06-22T02:12:29;14.25;;;12.93;;
21519;SDS011;10921;53.614;9.882;2023-06-22T02:14:58;14.20;;;12.70;;
21519;SDS011;10921;53.614;9.882;2023-06-22T02:17:27;14.20;;;12.80;;
21519;SDS011;10921;53.614;9.882;2023-06-22T02:19:54;13.82;;;12.63;;
21519;SDS011;10921;53.614;9.882;2023-06-22T02:22:20;13.82;;;12.63;;
21519;SDS011;10921;53.614;9.882;2023-06-22T02:24:47;13.60;;;12.32;;
21519;SDS011;10921;53.614;9.882;2023-06-22T02:27:13;13.85;;;12.52;;
21519;SDS011;10921;53.614;9.882;2023-06-22T02:29:40;14.52;;;13.23;;
21519;SDS011;10921;53.614;9.882;2023-06-22T02:32:07;13.93;;;12.63;;
21519;SDS011;10921;53.614;9.882;2023-06-22T02:34:33;14.30;;;13.10;;
21519;SDS011;10921;53.614;9.882;2023-06-22T02:37:00;14.65;;;13.30;;
21519;SDS011;10921;53.614;9.882;2023-06-22T02:39:27;14.38;;;12.98;;
21519;SDS011;10921;53.614;9.882;2023-06-22T02:41:54;15.10;;;13.50;;
21519;SDS011;10921;53.614;9.882;2023-06-22T02:44:21;15.20;;;13.40;;
21519;SDS011;10921;53.614;9.882;2023-06-22T02:46:48;14.63;;;13.18;;
21519;SDS011;10921;53.614;9.882;2023-06-22T02:49:14;15.23;;;13.02;;
21519;SDS011;10921;53.614;9.882;2023-06-22T02:51:42;14.65;;;13.27;;
21519;SDS011;10921;53.614;9.882;2023-06-22T02:54:11;14.48;;;13.20;;
21519;SDS011;10921;53.614;9.882;2023-06-22T02:56:37;14.23;;;13.02;;
21519;SDS011;10921;53.614;9.882;2023-06-22T02:59:04;13.20;;;12.00;;
21519;SDS011;10921;53.614;9.882;2023-06-22T03:01:30;14.70;;;13.32;;
21519;SDS011;10921;53.614;9.882;2023-06-22T03:04:04;15.10;;;13.63;;
21519;SDS011;10921;53.614;9.882;2023-06-22T03:06:31;15.27;;;13.73;;
21519;SDS011;10921;53.614;9.882;2023-06-22T03:09:01;16.88;;;14.02;;
21519;SDS011;10921;53.614;9.882;2023-06-22T03:11:31;15.15;;;13.82;;
21519;SDS011;10921;53.614;9.882;2023-06-22T03:13:58;15.82;;;14.43;;
21519;SDS011;10921;53.614;9.882;2023-06-22T03:16:25;14.98;;;13.68;;
21519;SDS011;10921;53.614;9.882;2023-06-22T03:18:52;15.95;;;14.45;;
21519;SDS011;10921;53.614;9.882;2023-06-22T03:21:21;16.20;;;14.65;;
21519;SDS011;10921;53.614;9.882;2023-06-22T03:23:49;16.17;;;14.60;;
21519;SDS011;10921;53.614;9.882;2023-06-22T03:26:16;15.75;;;14.25;;
21519;SDS011;10921;53.614;9.882;2023-06-22T03:28:44;16.25;;;14.80;;
21519;SDS011;10921;53.614;9.882;2023-06-22T03:31:10;16.58;;;14.77;;
21519;SDS011;10921;53.614;9.882;2023-06-22T03:33:37;16.75;;;15.10;;
21519;SDS011;10921;53.614;9.882;2023-06-22T03:36:03;16.25;;;14.55;;
21519;SDS011;10921;53.614;9.882;2023-06-22T03:38:30;16.65;;;14.25;;
21519;SDS011;10921;53.614;9.882;2023-06-22T03:40:56;17.02;;;15.32;;
21519;SDS011;10921;53.614;9.882;2023-06-22T03:43:23;16.25;;;14.70;;
21519;SDS011;10921;53.614;9.882;2023-06-22T03:45:50;15.77;;;14.30;;
21519;SDS011;10921;53.614;9.882;2023-06-22T03:48:16;20.23;;;17.90;;
21519;SDS011;10921;53.614;9.882;2023-06-22T03:50:43;20.55;;;18.35;;
21519;SDS011;10921;53.614;9.882;2023-06-22T03:53:10;21.98;;;19.58;;
21519;SDS011;10921;53.614;9.882;2023-06-22T03:55:37;20.77;;;18.55;;
21519;SDS011;10921;53.614;9.882;2023-06-22T03:58:03;19.13;;;16.55;;
21519;SDS011;10921;53.614;9.882;2023-06-22T04:00:32;19.17;;;17.23;;
21519;SDS011;10921;53.614;9.882;2023-06-22T04:02:58;18.92;;;16.88;;
21519;SDS011;10921;53.614;9.882;2023-06-22T04:05:25;20.27;;;17.38;;
21519;SDS011;10921;53.614;9.882;2023-06-22T04:07:52;19.67;;;17.60;;
21519;SDS011;10921;53.614;9.882;2023-06-22T04:10:18;19.92;;;17.67;;
21519;SDS011;10921;53.614;9.882;2023-06-22T04:12:45;21.00;;;18.20;;
21519;SDS011;10921;53.614;9.882;2023-06-22T04:15:11;18.60;;;16.70;;
21519;SDS011;10921;53.614;9.882;2023-06-22T04:17:38;21.63;;;17.45;;
21519;SDS011;10921;53.614;9.882;2023-06-22T04:20:05;18.35;;;16.17;;
21519;SDS011;10921;53.614;9.882;2023-06-22T04:22:32;18.60;;;16.60;;
21519;SDS011;10921;53.614;9.882;2023-06-22T04:24:59;19.90;;;17.77;;
21519;SDS011;10921;53.614;9.882;2023-06-22T04:27:25;21.77;;;17.67;;
21519;SDS011;10921;53.614;9.882;2023-06-22T04:29:52;18.35;;;16.52;;
21519;SDS011;10921;53.614;9.882;2023-06-22T04:32:19;19.42;;;17.52;;
21519;SDS011;10921;53.614;9.882;2023-06-22T04:34:45;18.00;;;16.30;;
21519;SDS011;10921;53.614;9.882;2023-06-22T04:37:12;20.85;;;18.65;;
21519;SDS011;10921;53.614;9.882;2023-06-22T04:39:42;21.60;;;17.23;;
21519;SDS011;10921;53.614;9.882;2023-06-22T04:42:09;17.95;;;16.05;;
21519;SDS011;10921;53.614;9.882;2023-06-22T04:44:36;20.35;;;17.83;;
21519;SDS011;10921;53.614;9.882;2023-06-22T04:47:02;25.05;;;18.67;;
21519;SDS011;10921;53.614;9.882;2023-06-22T04:49:30;22.17;;;18.20;;
21519;SDS011;10921;53.614;9.882;2023-06-22T04:52:11;18.23;;;16.33;;
21519;SDS011;10921;53.614;9.882;2023-06-22T04:54:39;17.50;;;15.75;;
21519;SDS011;10921;53.614;9.882;2023-06-22T04:57:13;23.23;;;18.95;;
21519;SDS011;10921;53.614;9.882;2023-06-22T04:59:42;19.00;;;16.98;;
21519;SDS011;10921;53.614;9.882;2023-06-22T05:02:08;18.30;;;16.40;;
21519;SDS011;10921;53.614;9.882;2023-06-22T05:04:36;17.45;;;15.85;;
21519;SDS011;10921;53.614;9.882;2023-06-22T05:07:06;25.52;;;17.38;;
21519;SDS011;10921;53.614;9.882;2023-06-22T05:09:33;19.00;;;16.83;;
21519;SDS011;10921;53.614;9.882;2023-06-22T05:12:00;19.33;;;17.33;;
21519;SDS011;10921;53.614;9.882;2023-06-22T05:14:29;17.92;;;16.02;;
21519;SDS011;10921;53.614;9.882;2023-06-22T05:16:56;18.55;;;15.90;;
21519;SDS011;10921;53.614;9.882;2023-06-22T05:19:25;17.23;;;15.63;;
21519;SDS011;10921;53.614;9.882;2023-06-22T05:21:57;17.45;;;15.65;;
21519;SDS011;10921;53.614;9.882;2023-06-22T05:24:24;21.80;;;15.80;;
21519;SDS011;10921;53.614;9.882;2023-06-22T05:27:08;16.80;;;15.10;;
21519;SDS011;10921;53.614;9.882;2023-06-22T05:29:53;17.25;;;14.85;;
21519;SDS011;10921;53.614;9.882;2023-06-22T05:32:37;15.43;;;13.93;;
21519;SDS011;10921;53.614;9.882;2023-06-22T05:35:20;15.85;;;14.18;;
21519;SDS011;10921;53.614;9.882;2023-06-22T05:37:47;15.43;;;13.93;;
21519;SDS011;10921;53.614;9.882;2023-06-22T05:40:14;14.43;;;12.90;;
21519;SDS011;10921;53.614;9.882;2023-06-22T05:42:41;14.25;;;12.93;;
21519;SDS011;10921;53.614;9.882;2023-06-22T05:45:07;14.45;;;13.02;;
21519;SDS011;10921;53.614;9.882;2023-06-22T05:47:34;14.30;;;12.77;;
21519;SDS011;10921;53.614;9.882;2023-06-22T05:50:01;13.75;;;12.55;;
21519;SDS011;10921;53.614;9.882;2023-06-22T05:52:32;14.23;;;12.88;;
21519;SDS011;10921;53.614;9.882;2023-06-22T05:54:59;13.63;;;12.32;;
21519;SDS011;10921;53.614;9.882;2023-06-22T05:57:25;14.23;;;12.70;;
21519;SDS011;10921;53.614;9.882;2023-06-22T05:59:52;13.82;;;12.43;;
21519;SDS011;10921;53.614;9.882;2023-06-22T06:02:20;14.43;;;13.13;;
21519;SDS011;10921;53.614;9.882;2023-06-22T06:04:46;15.15;;;13.70;;
21519;SDS011;10921;53.614;9.882;2023-06-22T06:07:13;15.50;;;14.00;;
21519;SDS011;10921;53.614;9.882;2023-06-22T06:09:40;14.00;;;12.70;;
21519;SDS011;10921;53.614;9.882;2023-06-22T06:12:06;13.75;;;12.65;;
21519;SDS011;10921;53.614;9.882;2023-06-22T06:14:35;13.80;;;12.52;;
21519;SDS011;10921;53.614;9.882;2023-06-22T06:17:02;13.43;;;12.20;;
21519;SDS011;10921;53.614;9.882;2023-06-22T06:19:28;14.90;;;13.43;;
21519;SDS011;10921;53.614;9.882;2023-06-22T06:21:55;13.90;;;12.40;;
21519;SDS011;10921;53.614;9.882;2023-06-22T06:24:22;13.40;;;12.05;;
21519;SDS011;10921;53.614;9.882;2023-06-22T06:26:48;14.20;;;12.07;;
21519;SDS011;10921;53.614;9.882;2023-06-22T06:29:14;13.45;;;12.25;;
21519;SDS011;10921;53.614;9.882;2023-06-22T06:31:42;14.82;;;12.93;;
21519;SDS011;10921;53.614;9.882;2023-06-22T06:34:09;13.70;;;12.38;;
21519;SDS011;10921;53.614;9.882;2023-06-22T06:36:35;12.77;;;11.52;;
21519;SDS011;10921;53.614;9.882;2023-06-22T06:39:02;12.50;;;11.40;;
21519;SDS011;10921;53.614;9.882;2023-06-22T06:41:30;12.20;;;11.10;;
21519;SDS011;10921;53.614;9.882;2023-06-22T06:43:56;13.60;;;11.73;;
21519;SDS011;10921;53.614;9.882;2023-06-22T06:46:23;13.63;;;12.25;;
21519;SDS011;10921;53.614;9.882;2023-06-22T06:48:49;13.70;;;12.40;;
21519;SDS011;10921;53.614;9.882;2023-06-22T06:51:16;13.10;;;12.10;;
21519;SDS011;10921;53.614;9.882;2023-06-22T06:53:42;13.07;;;11.77;;
21519;SDS011;10921;53.614;9.882;2023-06-22T06:56:09;14.13;;;12.82;;
21519;SDS011;10921;53.614;9.882;2023-06-22T06:58:37;14.23;;;13.00;;
21519;SDS011;10921;53.614;9.882;2023-06-22T07:01:05;13.52;;;12.32;;
21519;SDS011;10921;53.614;9.882;2023-06-22T07:03:32;14.52;;;13.18;;
21519;SDS011;10921;53.614;9.882;2023-06-22T07:05:59;13.18;;;11.93;;
21519;SDS011;10921;53.614;9.882;2023-06-22T07:08:26;14.13;;;12.82;;
21519;SDS011;10921;53.614;9.882;2023-06-22T07:10:52;14.13;;;12.88;;
21519;SDS011;10921;53.614;9.882;2023-06-22T07:13:19;14.15;;;12.85;;
21519;SDS011;10921;53.614;9.882;2023-06-22T07:15:46;13.90;;;12.60;;
21519;SDS011;10921;53.614;9.882;2023-06-22T07:18:12;13.63;;;12.27;;
21519;SDS011;10921;53.614;9.882;2023-06-22T07:20:39;13.88;;;12.77;;
21519;SDS011;10921;53.614;9.882;2023-06-22T07:23:07;13.25;;;12.05;;
21519;SDS011;10921;53.614;9.882;2023-06-22T07:25:33;13.45;;;12.13;;
21519;SDS011;10921;53.614;9.882;2023-06-22T07:28:01;13.32;;;12.10;;
21519;SDS011;10921;53.614;9.882;2023-06-22T07:32:58;12.77;;;11.77;;
21519;SDS011;10921;53.614;9.882;2023-06-22T07:35:30;12.57;;;11.43;;
21519;SDS011;10921;53.614;9.882;2023-06-22T07:37:56;12.43;;;11.35;;
21519;SDS011;10921;53.614;9.882;2023-06-22T07:40:23;13.10;;;11.88;;
21519;SDS011;10921;53.614;9.882;2023-06-22T07:42:49;12.27;;;10.82;;
21519;SDS011;10921;53.614;9.882;2023-06-22T07:45:18;12.85;;;11.02;;
21519;SDS011;10921;53.614;9.882;2023-06-22T07:47:44;12.23;;;10.95;;
21519;SDS011;10921;53.614;9.882;2023-06-22T07:50:11;11.75;;;10.63;;
21519;SDS011;10921;53.614;9.882;2023-06-22T07:52:37;12.25;;;11.13;;
21519;SDS011;10921;53.614;9.882;2023-06-22T07:55:04;11.93;;;10.82;;
21519;SDS011;10921;53.614;9.882;2023-06-22T07:57:31;11.60;;;10.70;;
21519;SDS011;10921;53.614;9.882;2023-06-22T08:00:01;11.80;;;10.80;;
21519;SDS011;10921;53.614;9.882;2023-06-22T08:02:33;11.98;;;10.88;;
21519;SDS011;10921;53.614;9.882;2023-06-22T08:04:59;11.45;;;10.65;;
21519;SDS011;10921;53.614;9.882;2023-06-22T08:07:45;12.40;;;11.02;;
21519;SDS011;10921;53.614;9.882;2023-06-22T08:10:14;11.80;;;10.68;;
21519;SDS011;10921;53.614;9.882;2023-06-22T08:12:42;11.45;;;10.50;;
21519;SDS011;10921;53.614;9.882;2023-06-22T08:15:09;11.32;;;10.32;;
21519;SDS011;10921;53.614;9.882;2023-06-22T08:17:37;10.95;;;10.00;;
21519;SDS011;10921;53.614;9.882;2023-06-22T08:20:05;10.75;;;9.77;;
21519;SDS011;10921;53.614;9.882;2023-06-22T08:22:36;10.75;;;9.85;;
21519;SDS011;10921;53.614;9.882;2023-06-22T08:25:03;15.43;;;14.32;;
21519;SDS011;10921;53.614;9.882;2023-06-22T08:27:30;15.50;;;14.18;;
21519;SDS011;10921;53.614;9.882;2023-06-22T08:30:00;15.60;;;14.32;;
21519;SDS011;10921;53.614;9.882;2023-06-22T08:32:27;13.27;;;12.20;;
21519;SDS011;10921;53.614;9.882;2023-06-22T08:34:55;15.27;;;14.05;;
21519;SDS011;10921;53.614;9.882;2023-06-22T08:37:22;14.07;;;12.85;;
21519;SDS011;10921;53.614;9.882;2023-06-22T08:39:58;15.10;;;13.70;;
21519;SDS011;10921;53.614;9.882;2023-06-22T08:42:27;15.77;;;14.57;;
21519;SDS011;10921;53.614;9.882;2023-06-22T08:44:53;15.50;;;13.63;;
21519;SDS011;10921;53.614;9.882;2023-06-22T08:47:20;14.52;;;13.30;;
21519;SDS011;10921;53.614;9.882;2023-06-22T08:49:47;14.18;;;12.98;;
21519;SDS011;10921;53.614;9.882;2023-06-22T08:52:14;14.20;;;13.13;;
21519;SDS011;10921;53.614;9.882;2023-06-22T08:54:41;15.00;;;13.65;;
21519;SDS011;10921;53.614;9.882;2023-06-22T08:57:07;13.73;;;12.52;;
21519;SDS011;10921;53.614;9.882;2023-06-22T08:59:34;14.48;;;13.15;;
21519;SDS011;10921;53.614;9.882;2023-06-22T09:02:00;15.15;;;13.75;;
21519;SDS011;10921;53.614;9.882;2023-06-22T09:04:27;14.43;;;13.27;;
21519;SDS011;10921;53.614;9.882;2023-06-22T09:06:54;14.70;;;13.32;;
21519;SDS011;10921;53.614;9.882;2023-06-22T09:09:21;14.25;;;13.15;;
21519;SDS011;10921;53.614;9.882;2023-06-22T09:11:48;13.45;;;12.45;;
21519;SDS011;10921;53.614;9.882;2023-06-22T09:14:14;13.35;;;12.20;;
21519;SDS011;10921;53.614;9.882;2023-06-22T09:16:41;16.15;;;14.90;;
21519;SDS011;10921;53.614;9.882;2023-06-22T09:19:08;13.00;;;11.90;;
21519;SDS011;10921;53.614;9.882;2023-06-22T09:21:34;13.68;;;12.38;;
21519;SDS011;10921;53.614;9.882;2023-06-22T09:24:01;13.25;;;12.05;;
21519;SDS011;10921;53.614;9.882;2023-06-22T09:26:28;12.75;;;11.48;;
21519;SDS011;10921;53.614;9.882;2023-06-22T09:28:54;13.80;;;12.50;;
21519;SDS011;10921;53.614;9.882;2023-06-22T09:31:21;12.95;;;11.75;;
21519;SDS011;10921;53.614;9.882;2023-06-22T09:33:54;13.57;;;12.57;;
21519;SDS011;10921;53.614;9.882;2023-06-22T09:36:21;12.90;;;11.90;;
21519;SDS011;10921;53.614;9.882;2023-06-22T09:38:48;15.18;;;13.75;;
21519;SDS011;10921;53.614;9.882;2023-06-22T09:41:21;15.23;;;13.98;;
21519;SDS011;10921;53.614;9.882;2023-06-22T09:43:48;16.30;;;14.65;;
21519;SDS011;10921;53.614;9.882;2023-06-22T09:46:15;14.48;;;13.18;;
21519;SDS011;10921;53.614;9.882;2023-06-22T09:48:42;14.30;;;13.20;;
21519;SDS011;10921;53.614;9.882;2023-06-22T09:51:09;13.75;;;12.70;;
21519;SDS011;10921;53.614;9.882;2023-06-22T09:53:35;14.70;;;13.45;;
21519;SDS011;10921;53.614;9.882;2023-06-22T09:56:03;14.00;;;12.93;;
21519;SDS011;10921;53.614;9.882;2023-06-22T09:58:30;13.93;;;12.70;;
21519;SDS011;10921;53.614;9.882;2023-06-22T10:00:56;14.55;;;13.45;;
21519;SDS011;10921;53.614;9.882;2023-06-22T10:03:23;14.13;;;12.93;;
21519;SDS011;10921;53.614;9.882;2023-06-22T10:05:49;14.35;;;12.93;;
21519;SDS011;10921;53.614;9.882;2023-06-22T10:08:16;13.80;;;12.63;;
21519;SDS011;10921;53.614;9.882;2023-06-22T10:10:42;14.40;;;13.10;;
21519;SDS011;10921;53.614;9.882;2023-06-22T10:13:09;12.23;;;11.23;;
21519;SDS011;10921;53.614;9.882;2023-06-22T10:15:37;13.55;;;12.35;;
21519;SDS011;10921;53.614;9.882;2023-06-22T10:18:04;13.00;;;11.80;;
21519;SDS011;10921;53.614;9.882;2023-06-22T10:20:31;14.98;;;13.43;;
21519;SDS011;10921;53.614;9.882;2023-06-22T10:22:57;12.07;;;11.07;;
21519;SDS011;10921;53.614;9.882;2023-06-22T10:25:26;14.15;;;13.15;;
21519;SDS011;10921;53.614;9.882;2023-06-22T10:27:53;12.50;;;11.38;;
21519;SDS011;10921;53.614;9.882;2023-06-22T10:30:19;13.15;;;12.05;;
21519;SDS011;10921;53.614;9.882;2023-06-22T10:32:46;12.70;;;11.43;;
21519;SDS011;10921;53.614;9.882;2023-06-22T10:35:13;12.43;;;11.43;;
21519;SDS011;10921;53.614;9.882;2023-06-22T10:37:42;12.60;;;11.60;;
21519;SDS011;10921;53.614;9.882;2023-06-22T10:40:11;14.32;;;13.13;;
21519;SDS011;10921;53.614;9.882;2023-06-22T10:42:39;13.10;;;11.80;;
21519;SDS011;10921;53.614;9.882;2023-06-22T10:45:06;14.10;;;13.00;;
21519;SDS011;10921;53.614;9.882;2023-06-22T10:47:33;12.98;;;12.07;;
21519;SDS011;10921;53.614;9.882;2023-06-22T10:50:00;13.13;;;12.13;;
21519;SDS011;10921;53.614;9.882;2023-06-22T10:52:27;12.52;;;11.52;;
21519;SDS011;10921;53.614;9.882;2023-06-22T10:54:54;12.82;;;11.73;;
21519;SDS011;10921;53.614;9.882;2023-06-22T10:57:21;12.05;;;11.15;;
21519;SDS011;10921;53.614;9.882;2023-06-22T10:59:47;13.20;;;12.07;;
21519;SDS011;10921;53.614;9.882;2023-06-22T11:02:14;13.85;;;12.77;;
21519;SDS011;10921;53.614;9.882;2023-06-22T11:04:40;13.40;;;12.13;;
21519;SDS011;10921;53.614;9.882;2023-06-22T11:07:07;14.82;;;13.48;;
21519;SDS011;10921;53.614;9.882;2023-06-22T11:09:34;13.65;;;12.65;;
21519;SDS011;10921;53.614;9.882;2023-06-22T11:12:02;13.85;;;12.82;;
21519;SDS011;10921;53.614;9.882;2023-06-22T11:14:29;16.02;;;14.52;;
21519;SDS011;10921;53.614;9.882;2023-06-22T11:16:55;15.07;;;13.90;;
21519;SDS011;10921;53.614;9.882;2023-06-22T11:19:22;13.38;;;12.40;;
21519;SDS011;10921;53.614;9.882;2023-06-22T11:21:48;14.73;;;13.43;;
21519;SDS011;10921;53.614;9.882;2023-06-22T11:24:15;12.95;;;11.70;;
21519;SDS011;10921;53.614;9.882;2023-06-22T11:26:43;12.48;;;11.57;;
21519;SDS011;10921;53.614;9.882;2023-06-22T11:29:10;15.50;;;14.13;;
21519;SDS011;10921;53.614;9.882;2023-06-22T11:31:53;12.93;;;11.93;;
21519;SDS011;10921;53.614;9.882;2023-06-22T11:34:19;15.85;;;14.45;;
21519;SDS011;10921;53.614;9.882;2023-06-22T11:36:46;15.05;;;13.93;;
21519;SDS011;10921;53.614;9.882;2023-06-22T11:39:14;15.43;;;14.23;;
21519;SDS011;10921;53.614;9.882;2023-06-22T11:41:41;14.07;;;12.68;;
21519;SDS011;10921;53.614;9.882;2023-06-22T11:44:08;14.27;;;13.10;;
21519;SDS011;10921;53.614;9.882;2023-06-22T11:46:35;14.02;;;12.90;;
21519;SDS011;10921;53.614;9.882;2023-06-22T11:49:01;15.05;;;13.95;;
21519;SDS011;10921;53.614;9.882;2023-06-22T11:51:28;14.80;;;13.40;;
21519;SDS011;10921;53.614;9.882;2023-06-22T11:53:57;15.38;;;14.13;;
21519;SDS011;10921;53.614;9.882;2023-06-22T11:56:25;14.57;;;13.25;;
21519;SDS011;10921;53.614;9.882;2023-06-22T11:58:51;15.73;;;14.43;;
21519;SDS011;10921;53.614;9.882;2023-06-22T12:01:18;13.95;;;12.85;;
21519;SDS011;10921;53.614;9.882;2023-06-22T12:03:45;13.35;;;12.25;;
21519;SDS011;10921;53.614;9.882;2023-06-22T12:06:12;16.38;;;14.98;;
21519;SDS011;10921;53.614;9.882;2023-06-22T12:08:39;13.88;;;12.70;;
21519;SDS011;10921;53.614;9.882;2023-06-22T12:11:06;14.38;;;13.13;;
21519;SDS011;10921;53.614;9.882;2023-06-22T12:13:33;14.23;;;13.02;;
21519;SDS011;10921;53.614;9.882;2023-06-22T12:15:59;13.90;;;12.75;;
21519;SDS011;10921;53.614;9.882;2023-06-22T12:18:26;14.95;;;13.48;;
21519;SDS011;10921;53.614;9.882;2023-06-22T12:20:53;14.70;;;13.50;;
21519;SDS011;10921;53.614;9.882;2023-06-22T12:23:19;14.20;;;13.13;;
21519;SDS011;10921;53.614;9.882;2023-06-22T12:25:46;14.98;;;13.88;;
21519;SDS011;10921;53.614;9.882;2023-06-22T12:28:12;14.07;;;12.85;;
21519;SDS011;10921;53.614;9.882;2023-06-22T12:30:40;14.93;;;13.82;;
21519;SDS011;10921;53.614;9.882;2023-06-22T12:33:06;13.90;;;12.65;;
21519;SDS011;10921;53.614;9.882;2023-06-22T12:35:34;13.52;;;12.40;;
21519;SDS011;10921;53.614;9.882;2023-06-22T12:38:01;13.70;;;12.60;;
21519;SDS011;10921;53.614;9.882;2023-06-22T12:40:27;13.18;;;12.25;;
21519;SDS011;10921;53.614;9.882;2023-06-22T12:42:54;13.68;;;12.43;;
21519;SDS011;10921;53.614;9.882;2023-06-22T12:45:21;13.23;;;11.98;;
21519;SDS011;10921;53.614;9.882;2023-06-22T12:47:48;12.48;;;11.57;;
21519;SDS011;10921;53.614;9.882;2023-06-22T12:50:16;12.93;;;11.93;;
21519;SDS011;10921;53.614;9.882;2023-06-22T12:52:42;13.10;;;12.10;;
21519;SDS011;10921;53.614;9.882;2023-06-22T12:55:09;13.13;;;12.05;;
21519;SDS011;10921;53.614;9.882;2023-06-22T12:57:36;15.90;;;14.63;;
21519;SDS011;10921;53.614;9.882;2023-06-22T13:00:02;14.63;;;13.43;;
21519;SDS011;10921;53.614;9.882;2023-06-22T13:02:31;15.73;;;14.47;;
21519;SDS011;10921;53.614;9.882;2023-06-22T13:04:58;14.00;;;12.90;;
21519;SDS011;10921;53.614;9.882;2023-06-22T13:07:24;15.30;;;14.15;;
21519;SDS011;10921;53.614;9.882;2023-06-22T13:09:51;13.35;;;12.35;;
21519;SDS011;10921;53.614;9.882;2023-06-22T13:12:20;14.20;;;13.15;;
21519;SDS011;10921;53.614;9.882;2023-06-22T13:14:47;14.48;;;13.38;;
21519;SDS011;10921;53.614;9.882;2023-06-22T13:17:14;14.25;;;13.25;;
21519;SDS011;10921;53.614;9.882;2023-06-22T13:19:41;14.70;;;13.27;;
21519;SDS011;10921;53.614;9.882;2023-06-22T13:22:28;13.32;;;12.32;;
21519;SDS011;10921;53.614;9.882;2023-06-22T13:24:59;13.57;;;12.57;;
21519;SDS011;10921;53.614;9.882;2023-06-22T13:27:26;13.80;;;12.80;;
21519;SDS011;10921;53.614;9.882;2023-06-22T13:29:53;14.55;;;13.45;;
21519;SDS011;10921;53.614;9.882;2023-06-22T13:32:37;14.73;;;13.43;;
21519;SDS011;10921;53.614;9.882;2023-06-22T13:35:20;14.10;;;13.10;;
21519;SDS011;10921;53.614;9.882;2023-06-22T13:38:04;14.32;;;13.23;;
21519;SDS011;10921;53.614;9.882;2023-06-22T13:40:49;15.25;;;13.93;;
21519;SDS011;10921;53.614;9.882;2023-06-22T13:43:33;14.95;;;13.68;;
21519;SDS011;10921;53.614;9.882;2023-06-22T13:46:17;15.15;;;13.98;;
21519;SDS011;10921;53.614;9.882;2023-06-22T13:49:01;14.13;;;13.02;;
21519;SDS011;10921;53.614;9.882;2023-06-22T13:51:45;14.02;;;12.90;;
21519;SDS011;10921;53.614;9.882;2023-06-22T13:54:11;14.35;;;13.02;;
21519;SDS011;10921;53.614;9.882;2023-06-22T13:56:54;14.38;;;13.25;;
21519;SDS011;10921;53.614;9.882;2023-06-22T13:59:21;14.65;;;13.30;;
21519;SDS011;10921;53.614;9.882;2023-06-22T14:01:48;13.80;;;12.70;;
21519;SDS011;10921;53.614;9.882;2023-06-22T14:04:14;14.25;;;12.95;;
21519;SDS011;10921;53.614;9.882;2023-06-22T14:06:41;14.02;;;12.77;;
21519;SDS011;10921;53.614;9.882;2023-06-22T14:09:07;14.45;;;13.35;;
21519;SDS011;10921;53.614;9.882;2023-06-22T14:11:34;14.10;;;12.90;;
21519;SDS011;10921;53.614;9.882;2023-06-22T14:14:01;13.75;;;12.45;;
21519;SDS011;10921;53.614;9.882;2023-06-22T14:16:27;13.25;;;12.25;;
21519;SDS011;10921;53.614;9.882;2023-06-22T14:18:54;13.82;;;12.70;;
21519;SDS011;10921;53.614;9.882;2023-06-22T14:21:23;14.05;;;12.75;;
21519;SDS011;10921;53.614;9.882;2023-06-22T14:23:50;13.40;;;12.38;;
21519;SDS011;10921;53.614;9.882;2023-06-22T14:26:16;14.18;;;12.90;;
21519;SDS011;10921;53.614;9.882;2023-06-22T14:28:46;13.30;;;12.30;;
21519;SDS011;10921;53.614;9.882;2023-06-22T14:31:14;14.38;;;13.13;;
21519;SDS011;10921;53.614;9.882;2023-06-22T14:33:44;12.93;;;11.82;;
21519;SDS011;10921;53.614;9.882;2023-06-22T14:36:13;14.00;;;12.63;;